createdAt,value
2017-03-20T00:00:27.859Z,0
2017-03-20T00:01:27.892Z,0
2017-03-20T00:02:27.935Z,0
2017-03-20T00:03:27.955Z,0
2017-03-20T00:04:27.977Z,0
2017-03-20T00:05:28.070Z,0
2017-03-20T00:06:28.051Z,0
2017-03-20T00:07:28.275Z,0
2017-03-20T00:08:28.141Z,0
2017-03-20T00:09:28.148Z,0
2017-03-20T00:10:28.180Z,0
2017-03-20T00:11:28.189Z,0
2017-03-20T00:12:28.226Z,0
2017-03-20T00:13:28.246Z,0
2017-03-20T00:14:28.291Z,0
2017-03-20T00:15:28.308Z,0
2017-03-20T00:16:28.328Z,0
2017-03-20T00:17:28.357Z,0
2017-03-20T00:18:28.433Z,0
2017-03-20T00:19:28.427Z,0
2017-03-20T00:20:28.441Z,0
2017-03-20T00:21:28.490Z,0
2017-03-20T00:22:28.509Z,0
2017-03-20T00:23:28.567Z,0
2017-03-20T00:24:28.566Z,0
2017-03-20T00:25:28.607Z,0
2017-03-20T00:26:28.616Z,0
2017-03-20T00:27:28.657Z,0
2017-03-20T00:28:28.692Z,0
2017-03-20T00:29:28.725Z,0
2017-03-20T00:30:28.742Z,0
2017-03-20T00:31:28.765Z,0
2017-03-20T00:32:28.794Z,0
2017-03-20T00:33:28.836Z,0
2017-03-20T00:34:28.990Z,0
2017-03-20T00:35:28.881Z,0
2017-03-20T00:36:28.914Z,0
2017-03-20T00:37:28.936Z,0
2017-03-20T00:38:28.976Z,0
2017-03-20T00:39:29.024Z,0
2017-03-20T00:40:29.057Z,0
2017-03-20T00:41:29.058Z,0
2017-03-20T00:42:29.089Z,0
2017-03-20T00:43:29.135Z,0
2017-03-20T00:44:29.153Z,0
2017-03-20T00:45:29.284Z,0
2017-03-20T00:46:29.232Z,0
2017-03-20T00:47:29.260Z,0
2017-03-20T00:48:29.292Z,0
2017-03-20T00:49:29.312Z,0
2017-03-20T00:50:29.326Z,0
2017-03-20T00:51:29.348Z,0
2017-03-20T00:52:29.381Z,0
2017-03-20T00:53:29.416Z,0
2017-03-20T00:54:29.458Z,0
2017-03-20T00:55:29.503Z,0
2017-03-20T00:56:29.608Z,0
2017-03-20T00:57:29.547Z,0
2017-03-20T00:58:29.562Z,0
2017-03-20T00:59:29.600Z,0
2017-03-20T01:00:29.627Z,0
2017-03-20T01:01:29.674Z,0
2017-03-20T01:02:29.825Z,0
2017-03-20T01:03:29.710Z,0
2017-03-20T01:04:29.737Z,0
2017-03-20T01:05:29.793Z,0
2017-03-20T01:06:29.804Z,0
2017-03-20T01:07:29.958Z,0
2017-03-20T01:08:29.967Z,0
2017-03-20T01:09:29.896Z,0
2017-03-20T01:10:29.915Z,0
2017-03-20T01:11:29.940Z,0
2017-03-20T01:12:29.986Z,0
2017-03-20T01:13:30.013Z,0
2017-03-20T01:14:30.052Z,0
2017-03-20T01:15:30.061Z,0
2017-03-20T01:16:30.179Z,0
2017-03-20T01:17:30.126Z,0
2017-03-20T01:18:30.159Z,0
2017-03-20T01:19:30.170Z,0
2017-03-20T01:20:30.205Z,0
2017-03-20T01:21:30.331Z,0
2017-03-20T01:22:30.264Z,0
2017-03-20T01:23:30.306Z,0
2017-03-20T01:24:30.326Z,0
2017-03-20T01:25:30.393Z,0
2017-03-20T01:26:30.390Z,0
2017-03-20T01:27:30.426Z,0
2017-03-20T01:28:30.468Z,0
2017-03-20T01:29:30.495Z,0
2017-03-20T01:30:30.518Z,0
2017-03-20T01:31:30.577Z,0
2017-03-20T01:32:30.565Z,0
2017-03-20T01:33:30.581Z,0
2017-03-20T01:34:30.626Z,0
2017-03-20T01:35:33.249Z,0
2017-03-20T01:36:30.701Z,0
2017-03-20T01:37:30.912Z,0
2017-03-20T01:38:30.746Z,0
2017-03-20T01:39:30.763Z,0
2017-03-20T01:40:30.789Z,0
2017-03-20T01:41:30.829Z,0
2017-03-20T01:42:30.911Z,0
2017-03-20T01:43:30.916Z,0
2017-03-20T01:44:30.916Z,0
2017-03-20T01:45:30.954Z,0
2017-03-20T01:46:30.961Z,0
2017-03-20T01:47:31.110Z,0
2017-03-20T01:48:31.042Z,0
2017-03-20T01:49:31.070Z,0
2017-03-20T01:50:31.204Z,0
2017-03-20T01:51:31.103Z,0
2017-03-20T01:52:31.139Z,0
2017-03-20T01:53:31.173Z,0
2017-03-20T01:54:31.205Z,0
2017-03-20T01:55:31.268Z,0
2017-03-20T01:56:31.262Z,0
2017-03-20T01:57:31.285Z,0
2017-03-20T01:58:31.325Z,0
2017-03-20T01:59:31.351Z,0
2017-03-20T02:00:31.371Z,0
2017-03-20T02:01:31.397Z,0
2017-03-20T02:02:31.437Z,0
2017-03-20T02:03:31.474Z,0
2017-03-20T02:04:31.511Z,0
2017-03-20T02:05:31.539Z,0
2017-03-20T02:06:31.553Z,0
2017-03-20T02:07:31.591Z,0
2017-03-20T02:08:31.644Z,0
2017-03-20T02:09:31.664Z,0
2017-03-20T02:10:31.655Z,0
2017-03-20T02:11:31.725Z,0
2017-03-20T02:12:31.725Z,0
2017-03-20T02:13:31.794Z,0
2017-03-20T02:14:31.855Z,0
2017-03-20T02:15:31.811Z,0
2017-03-20T02:16:31.845Z,0
2017-03-20T02:17:31.873Z,0
2017-03-20T02:18:31.907Z,0
2017-03-20T02:19:31.925Z,0
2017-03-20T02:20:32.027Z,0
2017-03-20T02:21:31.975Z,0
2017-03-20T02:22:32.007Z,0
2017-03-20T02:23:32.065Z,0
2017-03-20T02:24:32.075Z,0
2017-03-20T02:25:32.117Z,0
2017-03-20T02:26:32.121Z,0
2017-03-20T02:27:32.180Z,0
2017-03-20T02:28:32.182Z,0
2017-03-20T02:29:32.228Z,0
2017-03-20T02:31:32.058Z,0
2017-03-20T02:31:42.502Z,0
2017-03-20T02:32:42.993Z,0
2017-03-20T02:33:43.484Z,0
2017-03-20T02:34:43.940Z,0
2017-03-20T02:35:44.409Z,0
2017-03-20T02:36:44.876Z,0
2017-03-20T02:37:45.352Z,0
2017-03-20T02:38:45.825Z,0
2017-03-20T02:39:46.316Z,0
2017-03-20T02:40:46.777Z,0
2017-03-20T02:41:47.279Z,0
2017-03-20T02:42:47.776Z,0
2017-03-20T02:43:48.276Z,0
2017-03-20T02:44:48.760Z,0
2017-03-20T02:45:49.240Z,0
2017-03-20T02:46:49.733Z,0
2017-03-20T02:47:50.212Z,0
2017-03-20T02:48:50.707Z,0
2017-03-20T02:49:51.207Z,0
2017-03-20T02:50:51.678Z,0
2017-03-20T02:51:52.150Z,0
2017-03-20T02:52:52.647Z,0
2017-03-20T02:53:53.142Z,0
2017-03-20T02:54:53.634Z,0
2017-03-20T02:55:54.094Z,0
2017-03-20T02:56:54.559Z,0
2017-03-20T02:57:55.021Z,0
2017-03-20T02:58:55.526Z,0
2017-03-20T02:59:56.006Z,0
2017-03-20T03:00:56.489Z,0
2017-03-20T03:01:57.142Z,0
2017-03-20T03:02:57.007Z,0
2017-03-20T03:03:57.477Z,0
2017-03-20T03:04:57.985Z,0
2017-03-20T03:05:58.487Z,0
2017-03-20T03:06:58.955Z,0
2017-03-20T03:07:59.435Z,0
2017-03-20T03:08:59.918Z,0
2017-03-20T03:10:00.435Z,0
2017-03-20T03:11:00.918Z,0
2017-03-20T03:12:01.414Z,0
2017-03-20T03:13:01.901Z,0
2017-03-20T03:14:02.383Z,0
2017-03-20T03:15:02.869Z,0
2017-03-20T03:16:03.314Z,0
2017-03-20T03:17:03.794Z,0
2017-03-20T03:18:04.250Z,0
2017-03-20T03:19:04.762Z,0
2017-03-20T03:20:05.232Z,0
2017-03-20T03:21:05.737Z,0
2017-03-20T03:22:06.192Z,0
2017-03-20T03:23:06.680Z,0
2017-03-20T03:24:07.172Z,0
2017-03-20T03:25:07.648Z,0
2017-03-20T03:26:08.104Z,0
2017-03-20T03:27:08.571Z,0
2017-03-20T03:28:09.070Z,0
2017-03-20T03:29:09.582Z,0
2017-03-20T03:30:10.057Z,0
2017-03-20T03:31:10.544Z,0
2017-03-20T03:32:11.005Z,0
2017-03-20T03:33:11.504Z,0
2017-03-20T03:34:11.987Z,0
2017-03-20T03:35:12.455Z,0
2017-03-20T03:36:12.924Z,0
2017-03-20T03:37:13.406Z,0
2017-03-20T03:38:13.892Z,0
2017-03-20T03:39:14.396Z,0
2017-03-20T03:40:14.893Z,0
2017-03-20T03:41:15.363Z,0
2017-03-20T03:42:15.832Z,0
2017-03-20T03:43:16.339Z,0
2017-03-20T03:44:16.790Z,0
2017-03-20T03:45:17.257Z,0
2017-03-20T03:46:17.724Z,0
2017-03-20T03:47:18.200Z,0
2017-03-20T03:48:18.701Z,0
2017-03-20T03:49:19.142Z,0
2017-03-20T03:50:19.670Z,0
2017-03-20T03:51:20.159Z,0
2017-03-20T03:52:20.646Z,0
2017-03-20T03:53:21.105Z,0
2017-03-20T03:54:21.559Z,0
2017-03-20T03:55:22.012Z,0
2017-03-20T03:56:22.514Z,0
2017-03-20T03:57:23.022Z,0
2017-03-20T03:58:23.494Z,0
2017-03-20T03:59:23.989Z,0
2017-03-20T04:00:24.467Z,0
2017-03-20T04:01:24.948Z,0
2017-03-20T04:02:25.444Z,0
2017-03-20T04:03:25.945Z,0
2017-03-20T04:04:26.396Z,0
2017-03-20T04:05:26.887Z,0
2017-03-20T04:06:27.350Z,0
2017-03-20T04:07:27.862Z,0
2017-03-20T04:08:28.345Z,0
2017-03-20T04:09:28.867Z,0
2017-03-20T04:10:29.321Z,0
2017-03-20T04:11:29.793Z,0
2017-03-20T04:12:30.249Z,0
2017-03-20T04:13:30.726Z,0
2017-03-20T04:14:31.220Z,0
2017-03-20T04:15:31.702Z,0
2017-03-20T04:16:32.207Z,0
2017-03-20T04:17:32.701Z,0
2017-03-20T04:18:33.171Z,0
2017-03-20T04:19:33.659Z,0
2017-03-20T04:20:34.184Z,0
2017-03-20T04:21:34.148Z,0
2017-03-20T04:22:34.663Z,0
2017-03-20T04:23:35.147Z,0
2017-03-20T04:24:35.643Z,0
2017-03-20T04:25:36.137Z,0
2017-03-20T04:26:36.601Z,0
2017-03-20T04:27:37.102Z,0
2017-03-20T04:28:37.578Z,0
2017-03-20T04:29:38.064Z,0
2017-03-20T04:30:38.547Z,0
2017-03-20T04:31:39.282Z,0
2017-03-20T04:32:39.760Z,0
2017-03-20T04:33:40.220Z,0
2017-03-20T04:34:40.721Z,0
2017-03-20T04:35:41.246Z,0
2017-03-20T04:36:41.685Z,0
2017-03-20T04:37:42.146Z,0
2017-03-20T04:38:42.627Z,0
2017-03-20T04:39:43.098Z,0
2017-03-20T04:40:43.572Z,0
2017-03-20T04:41:44.027Z,0
2017-03-20T04:42:44.522Z,0
2017-03-20T04:43:45.023Z,0
2017-03-20T04:44:45.471Z,0
2017-03-20T04:45:45.954Z,0
2017-03-20T04:46:46.418Z,0
2017-03-20T04:47:46.916Z,0
2017-03-20T04:48:47.385Z,0
2017-03-20T04:49:47.848Z,0
2017-03-20T04:50:48.317Z,0
2017-03-20T04:51:48.766Z,0
2017-03-20T04:52:49.248Z,0
2017-03-20T04:53:49.708Z,0
2017-03-20T04:54:50.194Z,0
2017-03-20T04:55:50.676Z,0
2017-03-20T04:56:51.122Z,0
2017-03-20T04:57:51.611Z,0
2017-03-20T04:58:52.100Z,0
2017-03-20T04:59:52.588Z,0
2017-03-20T05:00:52.969Z,0
2017-03-20T05:01:53.384Z,0
2017-03-20T05:02:53.787Z,0
2017-03-20T05:03:54.192Z,0
2017-03-20T05:04:54.602Z,0
2017-03-20T05:05:55.006Z,0
2017-03-20T05:06:55.396Z,0
2017-03-20T05:07:55.795Z,5
2017-03-20T05:08:56.210Z,5
2017-03-20T05:09:56.617Z,5
2017-03-20T05:10:57.013Z,5
2017-03-20T05:11:57.435Z,5
2017-03-20T05:12:57.845Z,5
2017-03-20T05:13:58.283Z,10
2017-03-20T05:14:58.694Z,10
2017-03-20T05:15:59.093Z,10
2017-03-20T05:16:59.482Z,5
2017-03-20T05:17:59.885Z,5
2017-03-20T05:19:00.317Z,10
2017-03-20T05:20:00.778Z,10
2017-03-20T05:21:01.182Z,10
2017-03-20T05:22:01.575Z,10
2017-03-20T05:23:01.980Z,10
2017-03-20T05:24:02.423Z,15
2017-03-20T05:25:02.867Z,15
2017-03-20T05:26:03.263Z,10
2017-03-20T05:27:03.690Z,15
2017-03-20T05:28:04.087Z,15
2017-03-20T05:29:04.525Z,15
2017-03-20T05:30:04.934Z,20
2017-03-20T05:31:05.314Z,15
2017-03-20T05:32:05.702Z,15
2017-03-20T05:33:06.099Z,15
2017-03-20T05:34:06.511Z,15
2017-03-20T05:35:06.928Z,15
2017-03-20T05:36:07.339Z,15
2017-03-20T05:37:07.730Z,10
2017-03-20T05:38:08.169Z,10
2017-03-20T05:39:08.621Z,10
2017-03-20T05:40:09.056Z,10
2017-03-20T05:41:09.459Z,20
2017-03-20T05:42:09.910Z,25
2017-03-20T05:43:10.321Z,25
2017-03-20T05:44:10.734Z,25
2017-03-20T05:45:11.148Z,25
2017-03-20T05:46:11.545Z,30
2017-03-20T05:47:11.949Z,30
2017-03-20T05:48:12.351Z,30
2017-03-20T05:49:12.764Z,25
2017-03-20T05:50:13.159Z,25
2017-03-20T05:51:13.571Z,30
2017-03-20T05:52:13.974Z,25
2017-03-20T05:53:14.375Z,25
2017-03-20T05:54:14.788Z,35
2017-03-20T05:55:15.217Z,30
2017-03-20T05:56:15.639Z,30
2017-03-20T05:57:16.046Z,30
2017-03-20T05:58:16.449Z,30
2017-03-20T05:59:16.864Z,40
2017-03-20T06:00:17.242Z,35
2017-03-20T06:01:17.642Z,35
2017-03-20T06:02:18.066Z,35
2017-03-20T06:03:18.459Z,30
2017-03-20T06:04:18.863Z,25
2017-03-20T06:05:19.316Z,25
2017-03-20T06:06:19.775Z,30
2017-03-20T06:07:20.162Z,30
2017-03-20T06:08:20.543Z,25
2017-03-20T06:09:20.961Z,25
2017-03-20T06:10:21.496Z,25
2017-03-20T06:11:21.902Z,25
2017-03-20T06:12:22.293Z,30
2017-03-20T06:13:22.697Z,25
2017-03-20T06:14:23.083Z,30
2017-03-20T06:15:23.700Z,35
2017-03-20T06:16:24.092Z,35
2017-03-20T06:17:24.502Z,35
2017-03-20T06:18:24.910Z,35
2017-03-20T06:19:25.311Z,40
2017-03-20T06:20:25.849Z,45
2017-03-20T06:21:26.256Z,50
2017-03-20T06:22:26.644Z,45
2017-03-20T06:23:27.054Z,40
2017-03-20T06:24:27.461Z,45
2017-03-20T06:25:27.877Z,50
2017-03-20T06:26:28.277Z,50
2017-03-20T06:27:28.720Z,55
2017-03-20T06:28:29.145Z,60
2017-03-20T06:29:29.555Z,55
2017-03-20T06:30:29.953Z,55
2017-03-20T06:31:30.346Z,55
2017-03-20T06:32:30.743Z,55
2017-03-20T06:33:31.152Z,55
2017-03-20T06:34:31.569Z,55
2017-03-20T06:35:31.990Z,65
2017-03-20T06:36:32.400Z,65
2017-03-20T06:37:32.811Z,60
2017-03-20T06:38:33.204Z,65
2017-03-20T06:39:33.603Z,60
2017-03-20T06:40:33.990Z,70
2017-03-20T06:41:34.410Z,70
2017-03-20T06:42:34.799Z,80
2017-03-20T06:43:35.251Z,70
2017-03-20T06:44:35.694Z,80
2017-03-20T06:45:36.095Z,75
2017-03-20T06:46:36.461Z,75
2017-03-20T06:47:36.874Z,70
2017-03-20T06:48:37.279Z,75
2017-03-20T06:49:37.686Z,80
2017-03-20T06:50:38.063Z,85
2017-03-20T06:51:38.495Z,85
2017-03-20T06:52:38.886Z,95
2017-03-20T06:53:39.305Z,95
2017-03-20T06:54:39.714Z,95
2017-03-20T06:55:40.105Z,90
2017-03-20T06:56:40.521Z,85
2017-03-20T06:57:40.933Z,90
2017-03-20T06:58:41.334Z,90
2017-03-20T06:59:41.720Z,85
2017-03-20T07:00:42.115Z,85
2017-03-20T07:01:42.543Z,85
2017-03-20T07:02:42.961Z,85
2017-03-20T07:03:43.412Z,70
2017-03-20T07:04:43.811Z,80
2017-03-20T07:05:44.257Z,80
2017-03-20T07:06:44.663Z,80
2017-03-20T07:07:45.075Z,85
2017-03-20T07:08:45.495Z,80
2017-03-20T07:09:45.898Z,80
2017-03-20T07:10:46.338Z,85
2017-03-20T07:11:46.732Z,90
2017-03-20T07:12:47.130Z,95
2017-03-20T07:13:47.532Z,95
2017-03-20T07:14:47.932Z,115
2017-03-20T07:15:48.335Z,100
2017-03-20T07:16:48.779Z,85
2017-03-20T07:17:49.179Z,85
2017-03-20T07:18:49.583Z,90
2017-03-20T07:19:49.984Z,85
2017-03-20T07:20:50.384Z,90
2017-03-20T07:21:50.780Z,95
2017-03-20T07:22:51.184Z,90
2017-03-20T07:23:51.587Z,95
2017-03-20T07:24:51.987Z,100
2017-03-20T07:25:52.428Z,95
2017-03-20T07:26:52.830Z,85
2017-03-20T07:27:53.253Z,95
2017-03-20T07:28:53.667Z,95
2017-03-20T07:29:54.066Z,95
2017-03-20T07:30:54.468Z,95
2017-03-20T07:31:54.847Z,100
2017-03-20T07:32:55.290Z,90
2017-03-20T07:33:55.685Z,90
2017-03-20T07:34:56.085Z,80
2017-03-20T07:35:56.483Z,80
2017-03-20T07:36:56.908Z,95
2017-03-20T07:37:57.307Z,95
2017-03-20T07:38:57.704Z,100
2017-03-20T07:39:58.111Z,95
2017-03-20T07:40:58.510Z,95
2017-03-20T07:41:58.913Z,95
2017-03-20T07:42:59.311Z,90
2017-03-20T07:43:59.723Z,100
2017-03-20T07:45:00.144Z,100
2017-03-20T07:46:00.550Z,95
2017-03-20T07:47:01.008Z,95
2017-03-20T07:48:01.405Z,100
2017-03-20T07:49:01.805Z,100
2017-03-20T07:50:02.209Z,95
2017-03-20T07:51:02.615Z,115
2017-03-20T07:52:03.070Z,115
2017-03-20T07:53:03.461Z,115
2017-03-20T07:54:03.865Z,110
2017-03-20T07:55:04.277Z,120
2017-03-20T07:56:04.665Z,115
2017-03-20T07:57:05.563Z,130
2017-03-20T07:58:05.598Z,120
2017-03-20T07:59:05.610Z,105
2017-03-20T08:00:05.658Z,115
2017-03-20T08:01:05.679Z,100
2017-03-20T08:02:05.681Z,85
2017-03-20T08:03:05.742Z,100
2017-03-20T08:04:05.791Z,85
2017-03-20T08:05:05.810Z,100
2017-03-20T08:06:05.822Z,105
2017-03-20T08:07:05.867Z,120
2017-03-20T08:08:05.901Z,135
2017-03-20T08:09:05.943Z,145
2017-03-20T08:10:06.000Z,170
2017-03-20T08:11:05.969Z,155
2017-03-20T08:12:06.000Z,135
2017-03-20T08:13:06.056Z,155
2017-03-20T08:14:06.078Z,160
2017-03-20T08:15:06.110Z,155
2017-03-20T08:16:06.124Z,160
2017-03-20T08:17:06.171Z,205
2017-03-20T08:18:06.195Z,235
2017-03-20T08:19:06.255Z,225
2017-03-20T08:20:06.267Z,230
2017-03-20T08:21:06.296Z,235
2017-03-20T08:22:06.383Z,235
2017-03-20T08:23:06.391Z,225
2017-03-20T08:24:06.414Z,220
2017-03-20T08:25:06.376Z,225
2017-03-20T08:26:06.440Z,240
2017-03-20T08:27:06.490Z,285
2017-03-20T08:28:06.555Z,290
2017-03-20T08:29:06.575Z,240
2017-03-20T08:30:06.629Z,215
2017-03-20T08:31:06.615Z,235
2017-03-20T08:32:06.622Z,250
2017-03-20T08:33:06.660Z,250
2017-03-20T08:34:06.681Z,275
2017-03-20T08:35:06.732Z,275
2017-03-20T08:36:06.760Z,320
2017-03-20T08:37:06.784Z,410
2017-03-20T08:38:06.807Z,425
2017-03-20T08:39:06.844Z,360
2017-03-20T08:40:06.889Z,310
2017-03-20T08:41:06.901Z,300
2017-03-20T08:42:06.947Z,315
2017-03-20T08:43:06.984Z,240
2017-03-20T08:44:07.027Z,220
2017-03-20T08:45:07.154Z,210
2017-03-20T08:46:07.063Z,190
2017-03-20T08:47:07.084Z,215
2017-03-20T08:48:07.125Z,200
2017-03-20T08:49:07.209Z,200
2017-03-20T08:50:07.342Z,220
2017-03-20T08:51:07.229Z,220
2017-03-20T08:52:07.274Z,215
2017-03-20T08:53:07.304Z,220
2017-03-20T08:54:07.318Z,285
2017-03-20T08:55:08.013Z,285
2017-03-20T08:56:07.927Z,280
2017-03-20T08:57:07.934Z,310
2017-03-20T08:58:07.965Z,285
2017-03-20T08:59:08.006Z,270
2017-03-20T09:00:08.289Z,335
2017-03-20T09:01:08.080Z,280
2017-03-20T09:02:08.050Z,245
2017-03-20T09:03:07.606Z,235
2017-03-20T09:04:07.643Z,210
2017-03-20T09:05:07.673Z,210
2017-03-20T09:06:07.725Z,225
2017-03-20T09:07:07.724Z,205
2017-03-20T09:08:07.766Z,210
2017-03-20T09:09:07.804Z,220
2017-03-20T09:10:07.831Z,220
2017-03-20T09:11:07.859Z,210
2017-03-20T09:12:07.940Z,230
2017-03-20T09:13:07.935Z,275
2017-03-20T09:14:07.957Z,240
2017-03-20T09:15:08.017Z,265
2017-03-20T09:16:08.022Z,185
2017-03-20T09:17:08.049Z,185
2017-03-20T09:18:08.099Z,185
2017-03-20T09:19:08.131Z,185
2017-03-20T09:20:08.257Z,170
2017-03-20T09:21:08.179Z,165
2017-03-20T09:22:08.202Z,170
2017-03-20T09:23:08.251Z,190
2017-03-20T09:24:08.287Z,215
2017-03-20T09:25:08.883Z,280
2017-03-20T09:26:08.362Z,255
2017-03-20T09:27:08.373Z,265
2017-03-20T09:28:08.401Z,250
2017-03-20T09:29:08.438Z,200
2017-03-20T09:30:08.475Z,210
2017-03-20T09:31:08.525Z,225
2017-03-20T09:32:08.537Z,230
2017-03-20T09:33:08.566Z,195
2017-03-20T09:34:08.605Z,195
2017-03-20T09:35:08.664Z,180
2017-03-20T09:36:08.652Z,180
2017-03-20T09:37:08.687Z,170
2017-03-20T09:38:08.761Z,170
2017-03-20T09:39:08.787Z,175
2017-03-20T09:40:08.810Z,165
2017-03-20T09:41:08.824Z,160
2017-03-20T09:42:08.836Z,130
2017-03-20T09:43:08.887Z,130
2017-03-20T09:44:08.920Z,140
2017-03-20T09:45:08.947Z,150
2017-03-20T09:46:08.964Z,155
2017-03-20T09:47:08.968Z,165
2017-03-20T09:48:09.031Z,190
2017-03-20T09:49:09.081Z,185
2017-03-20T09:50:09.098Z,165
2017-03-20T09:51:09.129Z,160
2017-03-20T09:52:09.172Z,170
2017-03-20T09:53:09.203Z,160
2017-03-20T09:54:09.228Z,125
2017-03-20T09:55:09.259Z,130
2017-03-20T09:56:09.308Z,145
2017-03-20T09:57:09.325Z,180
2017-03-20T09:58:09.355Z,190
2017-03-20T09:59:09.405Z,205
2017-03-20T10:00:09.568Z,220
2017-03-20T10:01:09.431Z,220
2017-03-20T10:02:09.524Z,245
2017-03-20T10:03:09.515Z,255
2017-03-20T10:04:09.546Z,255
2017-03-20T10:05:09.702Z,275
2017-03-20T10:06:09.607Z,320
2017-03-20T10:07:09.636Z,355
2017-03-20T10:08:09.677Z,345
2017-03-20T10:09:09.685Z,310
2017-03-20T10:10:09.843Z,270
2017-03-20T10:11:09.807Z,270
2017-03-20T10:12:09.780Z,275
2017-03-20T10:13:09.828Z,290
2017-03-20T10:14:09.858Z,310
2017-03-20T10:15:09.891Z,360
2017-03-20T10:16:09.917Z,365
2017-03-20T10:17:09.930Z,385
2017-03-20T10:18:09.990Z,405
2017-03-20T10:19:10.028Z,445
2017-03-20T10:20:10.031Z,465
2017-03-20T10:21:10.078Z,475
2017-03-20T10:22:10.110Z,465
2017-03-20T10:23:10.148Z,460
2017-03-20T10:24:10.174Z,510
2017-03-20T10:25:10.215Z,460
2017-03-20T10:26:10.248Z,410
2017-03-20T10:27:10.265Z,370
2017-03-20T10:28:10.300Z,295
2017-03-20T10:29:10.348Z,315
2017-03-20T10:30:10.382Z,330
2017-03-20T10:31:10.408Z,295
2017-03-20T10:32:10.447Z,240
2017-03-20T10:33:10.471Z,235
2017-03-20T10:34:10.507Z,255
2017-03-20T10:35:10.533Z,255
2017-03-20T10:36:10.582Z,260
2017-03-20T10:37:10.596Z,235
2017-03-20T10:38:10.647Z,235
2017-03-20T10:39:10.686Z,275
2017-03-20T10:40:10.702Z,270
2017-03-20T10:41:11.029Z,290
2017-03-20T10:42:10.774Z,285
2017-03-20T10:43:10.810Z,350
2017-03-20T10:44:10.881Z,360
2017-03-20T10:45:10.879Z,390
2017-03-20T10:46:10.888Z,365
2017-03-20T10:47:10.932Z,395
2017-03-20T10:48:10.966Z,415
2017-03-20T10:49:10.988Z,390
2017-03-20T10:50:11.078Z,370
2017-03-20T10:51:11.159Z,365
2017-03-20T10:52:11.075Z,315
2017-03-20T10:53:11.137Z,315
2017-03-20T10:54:11.144Z,300
2017-03-20T10:55:11.217Z,275
2017-03-20T10:56:11.330Z,255
2017-03-20T10:57:11.230Z,275
2017-03-20T10:58:11.284Z,260
2017-03-20T10:59:11.348Z,285
2017-03-20T11:00:11.579Z,335
2017-03-20T11:01:11.635Z,330
2017-03-20T11:02:11.401Z,370
2017-03-20T11:03:11.435Z,395
2017-03-20T11:04:11.480Z,440
2017-03-20T11:05:11.573Z,460
2017-03-20T11:06:11.542Z,390
2017-03-20T11:07:11.613Z,355
2017-03-20T11:08:11.621Z,340
2017-03-20T11:09:11.643Z,305
2017-03-20T11:10:11.662Z,260
2017-03-20T11:11:11.713Z,235
2017-03-20T11:12:11.717Z,220
2017-03-20T11:13:11.790Z,215
2017-03-20T11:14:11.824Z,235
2017-03-20T11:15:11.823Z,240
2017-03-20T11:16:11.891Z,230
2017-03-20T11:17:11.897Z,255
2017-03-20T11:18:11.925Z,315
2017-03-20T11:19:11.984Z,290
2017-03-20T11:20:11.984Z,275
2017-03-20T11:21:12.037Z,285
2017-03-20T11:22:12.079Z,280
2017-03-20T11:23:12.091Z,275
2017-03-20T11:24:12.133Z,270
2017-03-20T11:25:12.177Z,275
2017-03-20T11:26:12.221Z,275
2017-03-20T11:27:12.232Z,305
2017-03-20T11:28:12.274Z,275
2017-03-20T11:29:12.302Z,265
2017-03-20T11:30:12.356Z,245
2017-03-20T11:31:12.389Z,270
2017-03-20T11:32:12.414Z,270
2017-03-20T11:33:12.431Z,280
2017-03-20T11:34:12.507Z,300
2017-03-20T11:35:12.646Z,320
2017-03-20T11:36:12.538Z,310
2017-03-20T11:37:12.531Z,300
2017-03-20T11:38:12.667Z,295
2017-03-20T11:39:12.618Z,330
2017-03-20T11:40:12.921Z,315
2017-03-20T11:41:12.702Z,305
2017-03-20T11:42:12.739Z,285
2017-03-20T11:43:12.762Z,220
2017-03-20T11:44:12.787Z,210
2017-03-20T11:45:12.910Z,200
2017-03-20T11:46:12.838Z,185
2017-03-20T11:47:12.900Z,230
2017-03-20T11:48:12.902Z,270
2017-03-20T11:49:12.942Z,245
2017-03-20T11:50:13.138Z,185
2017-03-20T11:51:13.014Z,150
2017-03-20T11:52:13.040Z,175
2017-03-20T11:53:13.124Z,215
2017-03-20T11:54:13.145Z,220
2017-03-20T11:55:13.156Z,285
2017-03-20T11:56:13.182Z,365
2017-03-20T11:57:13.215Z,290
2017-03-20T11:58:13.252Z,295
2017-03-20T11:59:13.287Z,300
2017-03-20T12:00:13.540Z,270
2017-03-20T12:01:13.352Z,265
2017-03-20T12:02:13.382Z,225
2017-03-20T12:03:13.413Z,200
2017-03-20T12:04:13.451Z,190
2017-03-20T12:05:13.490Z,185
2017-03-20T12:06:13.750Z,190
2017-03-20T12:07:13.596Z,230
2017-03-20T12:08:13.731Z,250
2017-03-20T12:09:13.611Z,210
2017-03-20T12:10:13.654Z,205
2017-03-20T12:11:13.663Z,255
2017-03-20T12:12:13.707Z,300
2017-03-20T12:13:13.742Z,300
2017-03-20T12:14:13.782Z,280
2017-03-20T12:15:13.821Z,290
2017-03-20T12:16:13.843Z,405
2017-03-20T12:17:13.887Z,345
2017-03-20T12:18:13.922Z,230
2017-03-20T12:19:13.948Z,235
2017-03-20T12:20:13.963Z,275
2017-03-20T12:21:14.007Z,290
2017-03-20T12:22:14.031Z,315
2017-03-20T12:23:14.077Z,315
2017-03-20T12:24:14.137Z,310
2017-03-20T12:25:14.341Z,320
2017-03-20T12:26:14.169Z,300
2017-03-20T12:27:14.202Z,310
2017-03-20T12:28:14.258Z,305
2017-03-20T12:29:14.294Z,305
2017-03-20T12:30:14.326Z,275
2017-03-20T12:31:14.357Z,230
2017-03-20T12:32:14.367Z,180
2017-03-20T12:33:14.413Z,150
2017-03-20T12:34:14.434Z,140
2017-03-20T12:35:14.460Z,260
2017-03-20T12:36:14.511Z,250
2017-03-20T12:37:14.534Z,165
2017-03-20T12:38:14.568Z,200
2017-03-20T12:39:14.648Z,135
2017-03-20T12:40:14.673Z,130
2017-03-20T12:41:14.654Z,130
2017-03-20T12:42:14.719Z,135
2017-03-20T12:43:14.732Z,170
2017-03-20T12:44:14.767Z,165
2017-03-20T12:45:14.789Z,165
2017-03-20T12:46:14.839Z,200
2017-03-20T12:47:14.912Z,190
2017-03-20T12:48:14.894Z,220
2017-03-20T12:49:14.920Z,180
2017-03-20T12:50:14.975Z,205
2017-03-20T12:51:15.052Z,185
2017-03-20T12:52:15.046Z,155
2017-03-20T12:53:15.066Z,125
2017-03-20T12:54:15.148Z,160
2017-03-20T12:55:15.180Z,245
2017-03-20T12:56:15.187Z,300
2017-03-20T12:57:15.200Z,280
2017-03-20T12:58:15.235Z,260
2017-03-20T12:59:15.275Z,280
2017-03-20T13:00:15.290Z,290
2017-03-20T13:01:15.325Z,260
2017-03-20T13:02:15.363Z,280
2017-03-20T13:03:15.396Z,355
2017-03-20T13:04:15.426Z,320
2017-03-20T13:05:15.463Z,235
2017-03-20T13:06:15.479Z,200
2017-03-20T13:07:15.547Z,250
2017-03-20T13:08:15.565Z,255
2017-03-20T13:09:15.595Z,220
2017-03-20T13:10:15.651Z,170
2017-03-20T13:11:15.640Z,155
2017-03-20T13:12:15.684Z,155
2017-03-20T13:13:15.736Z,135
2017-03-20T13:14:15.751Z,115
2017-03-20T13:15:15.803Z,170
2017-03-20T13:16:15.852Z,225
2017-03-20T13:17:15.871Z,275
2017-03-20T13:18:15.881Z,305
2017-03-20T13:19:15.936Z,355
2017-03-20T13:20:15.948Z,360
2017-03-20T13:21:16.019Z,335
2017-03-20T13:22:16.022Z,365
2017-03-20T13:23:16.064Z,420
2017-03-20T13:24:16.091Z,390
2017-03-20T13:25:16.137Z,355
2017-03-20T13:26:16.179Z,345
2017-03-20T13:27:16.191Z,365
2017-03-20T13:28:16.242Z,345
2017-03-20T13:29:16.259Z,275
2017-03-20T13:30:16.280Z,250
2017-03-20T13:31:16.324Z,330
2017-03-20T13:32:16.371Z,335
2017-03-20T13:33:16.392Z,300
2017-03-20T13:34:16.424Z,285
2017-03-20T13:35:16.453Z,290
2017-03-20T13:36:16.531Z,290
2017-03-20T13:37:16.516Z,300
2017-03-20T13:38:16.551Z,320
2017-03-20T13:39:16.589Z,335
2017-03-20T13:40:16.623Z,285
2017-03-20T13:41:16.630Z,265
2017-03-20T13:42:16.690Z,270
2017-03-20T13:43:16.729Z,290
2017-03-20T13:44:16.761Z,320
2017-03-20T13:45:16.801Z,285
2017-03-20T13:46:16.816Z,280
2017-03-20T13:47:16.840Z,315
2017-03-20T13:48:16.896Z,320
2017-03-20T13:49:16.912Z,335
2017-03-20T13:50:16.926Z,340
2017-03-20T13:51:16.974Z,330
2017-03-20T13:52:17.026Z,370
2017-03-20T13:53:17.054Z,380
2017-03-20T13:54:17.091Z,295
2017-03-20T13:55:17.226Z,280
2017-03-20T13:56:17.169Z,270
2017-03-20T13:57:17.182Z,245
2017-03-20T13:58:17.224Z,250
2017-03-20T13:59:17.278Z,275
2017-03-20T14:00:17.799Z,310
2017-03-20T14:01:17.321Z,320
2017-03-20T14:02:17.363Z,305
2017-03-20T14:03:17.394Z,300
2017-03-20T14:04:17.437Z,315
2017-03-20T14:05:17.448Z,330
2017-03-20T14:06:17.508Z,320
2017-03-20T14:07:17.536Z,305
2017-03-20T14:08:17.577Z,315
2017-03-20T14:09:17.601Z,310
2017-03-20T14:10:17.663Z,310
2017-03-20T14:11:17.658Z,335
2017-03-20T14:12:17.702Z,340
2017-03-20T14:13:17.726Z,340
2017-03-20T14:14:17.798Z,320
2017-03-20T14:15:17.828Z,280